Garber, Oklahoma
Current Conditions -  °F | °C
As of 6:50 AM on Tuesday 21 Oct 2014 (Local Time) from KWDG Reporting Station
Haze Haze  
Wind Chill: 57°   Ceiling: 6500
Heat Index: 57°   Visibility: 5mi
Dew Point: 57°   Wind: 0mph
Humidity: 100%   Direction: NA
Pressure: 30.05"   Gusts: NA
Location:  36.44°N, 97.59°W
Report Text: KWDG 211150Z 00000KT 5SM BR SCT055 BKN065 14/14 A3005
Loading
Personal Weather Stations






























Interactive Weather Map
Tropical Storm Tracking
New forecast layout! Learn more

10-Day Weather Forecast

Advertisements
Track Severe Weather on mobile